Time;durP1;ratioP1;P1;durP2;ratioP2;P2;SDS_P1;SDS_P2;PMS_P1;PMS_P2;Temp;Humidity;BMP_temperature;BMP_pressure;BME280_temperature;BME280_humidity;BME280_pressure;Samples;Min_cycle;Max_cycle;Signal;HPM_P1;HPM_P2
2023/10/28 00:00:50;;;;;;;37.60;35.67;;;;;;;;;;5058958;28;20521;-69
2023/10/28 00:03:16;;;;;;;38.97;36.63;;;;;;;;;;5062006;28;20029;-69
2023/10/28 00:05:41;;;;;;;34.72;32.90;;;;;;;;;;5061998;28;20029;-69
2023/10/28 00:08:07;;;;;;;36.60;34.67;;;;;;;;;;5061489;28;20086;-69
2023/10/28 00:10:34;;;;;;;31.30;29.70;;;;;;;;;;5065952;28;20563;-69
2023/10/28 00:12:59;;;;;;;32.38;30.67;;;;;;;;;;5062641;28;20496;-69
2023/10/28 00:15:25;;;;;;;31.77;30.08;;;;;;;;;;5061744;28;20068;-69
2023/10/28 00:17:51;;;;;;;30.50;28.90;;;;;;;;;;5063062;28;20036;-69
2023/10/28 00:20:17;;;;;;;32.65;30.95;;;;;;;;;;5064166;28;20037;-69
2023/10/28 00:22:47;;;;;;;28.80;27.30;;;;;;;;;;5062495;28;20061;-69
2023/10/28 00:25:14;;;;;;;36.90;35.00;;;;;;;;;;5067233;28;20052;-69
2023/10/28 00:27:40;;;;;;;35.50;33.70;;;;;;;;;;5067076;28;20065;-69
2023/10/28 00:30:07;;;;;;;40.10;38.05;;;;;;;;;;5066266;28;20256;-69
2023/10/28 00:32:34;;;;;;;40.88;38.55;;;;;;;;;;5064488;28;20453;-68
2023/10/28 00:34:59;;;;;;;38.05;36.13;;;;;;;;;;5062982;28;20040;-69
2023/10/28 00:37:25;;;;;;;47.92;45.53;;;;;;;;;;5061168;28;20546;-68
2023/10/28 00:39:50;;;;;;;47.42;45.03;;;;;;;;;;5060632;28;20043;-67
2023/10/28 00:42:17;;;;;;;44.42;42.17;;;;;;;;;;5062202;28;20421;-68
2023/10/28 00:44:43;;;;;;;42.88;40.67;;;;;;;;;;5062907;28;20032;-68
2023/10/28 00:47:09;;;;;;;45.17;42.88;;;;;;;;;;5061410;28;20036;-68
2023/10/28 00:49:35;;;;;;;42.45;40.30;;;;;;;;;;5062002;28;20074;-68
2023/10/28 00:52:01;;;;;;;41.25;39.15;;;;;;;;;;5064575;28;20055;-68
2023/10/28 00:54:27;;;;;;;40.03;37.95;;;;;;;;;;5064768;28;20032;-68
2023/10/28 00:56:54;;;;;;;38.88;36.88;;;;;;;;;;5063704;28;20192;-67
2023/10/28 00:59:19;;;;;;;42.20;40.03;;;;;;;;;;5062083;28;20374;-68
2023/10/28 01:01:45;;;;;;;41.05;38.95;;;;;;;;;;5060621;28;20032;-67
2023/10/28 01:04:10;;;;;;;50.28;45.95;;;;;;;;;;5061619;28;20121;-68
2023/10/28 01:06:37;;;;;;;39.85;37.85;;;;;;;;;;5061786;28;20047;-69
2023/10/28 01:09:03;;;;;;;30.33;28.73;;;;;;;;;;5058963;28;20087;-67
2023/10/28 01:11:28;;;;;;;30.45;28.85;;;;;;;;;;5062182;28;20025;-66
2023/10/28 01:13:54;;;;;;;26.67;25.17;;;;;;;;;;5066294;28;20052;-67
2023/10/28 01:16:20;;;;;;;25.15;23.75;;;;;;;;;;5063435;28;20086;-68
2023/10/28 01:18:45;;;;;;;26.73;25.33;;;;;;;;;;5061113;28;20405;-68
2023/10/28 01:21:14;;;;;;;26.30;24.80;;;;;;;;;;5063224;28;20036;-68
2023/10/28 01:23:40;;;;;;;24.33;23.02;;;;;;;;;;5061051;28;20092;-67
2023/10/28 01:26:05;;;;;;;25.15;23.83;;;;;;;;;;5062733;28;20518;-67
2023/10/28 01:28:31;;;;;;;24.67;23.38;;;;;;;;;;5062617;28;20029;-68
2023/10/28 01:30:56;;;;;;;25.55;24.17;;;;;;;;;;5062538;28;20028;-67
2023/10/28 01:33:22;;;;;;;25.35;23.95;;;;;;;;;;5060849;28;20029;-67
2023/10/28 01:35:47;;;;;;;27.25;25.60;;;;;;;;;;5062033;28;20055;-67
2023/10/28 01:38:13;;;;;;;27.08;25.38;;;;;;;;;;5061004;28;20056;-67
2023/10/28 01:40:38;;;;;;;24.98;23.67;;;;;;;;;;5060446;28;21066;-68
2023/10/28 01:43:04;;;;;;;22.27;21.08;;;;;;;;;;5062299;28;20037;-67
2023/10/28 01:45:31;;;;;;;21.55;20.40;;;;;;;;;;5060908;28;20037;-68
2023/10/28 01:47:56;;;;;;;23.48;22.23;;;;;;;;;;5061565;28;20032;-67
2023/10/28 01:50:21;;;;;;;23.52;22.25;;;;;;;;;;5060364;28;20096;-66
2023/10/28 01:52:47;;;;;;;26.00;24.63;;;;;;;;;;5058654;28;20071;-67
2023/10/28 01:55:13;;;;;;;30.10;28.40;;;;;;;;;;5062451;28;20070;-67
2023/10/28 01:57:38;;;;;;;28.98;27.48;;;;;;;;;;5057362;28;20349;-67
2023/10/28 02:00:07;;;;;;;33.90;32.17;;;;;;;;;;5060774;28;20039;-67
2023/10/28 02:02:35;;;;;;;33.55;31.85;;;;;;;;;;5062162;28;20170;-66
2023/10/28 02:05:01;;;;;;;31.83;30.13;;;;;;;;;;5054564;28;20712;-67
2023/10/28 02:07:27;;;;;;;29.95;28.38;;;;;;;;;;5062636;28;20044;-67
2023/10/28 02:09:52;;;;;;;32.40;30.70;;;;;;;;;;5061010;28;20163;-67
2023/10/28 02:12:18;;;;;;;30.55;28.95;;;;;;;;;;5063625;28;20115;-67
2023/10/28 02:14:46;;;;;;;31.05;29.45;;;;;;;;;;5060625;28;20399;-67
2023/10/28 02:17:12;;;;;;;29.23;27.70;;;;;;;;;;5064145;28;20249;-67
2023/10/28 02:19:38;;;;;;;27.30;25.88;;;;;;;;;;5060254;28;20357;-67
2023/10/28 02:22:04;;;;;;;27.20;25.77;;;;;;;;;;5061648;28;20021;-67
2023/10/28 02:24:29;;;;;;;27.58;26.17;;;;;;;;;;5062283;28;20036;-67
2023/10/28 02:26:55;;;;;;;25.02;23.67;;;;;;;;;;5059653;28;20032;-67
2023/10/28 02:29:22;;;;;;;29.00;27.30;;;;;;;;;;5061065;28;20028;-67
2023/10/28 02:31:48;;;;;;;28.83;27.33;;;;;;;;;;5061002;28;20123;-67
2023/10/28 02:34:15;;;;;;;30.33;28.75;;;;;;;;;;5061810;28;20101;-67
2023/10/28 02:36:40;;;;;;;32.20;30.52;;;;;;;;;;5057912;28;20040;-67
2023/10/28 02:39:06;;;;;;;35.03;33.22;;;;;;;;;;5060885;28;20477;-67
2023/10/28 02:41:31;;;;;;;32.70;31.02;;;;;;;;;;5058246;28;20037;-67
2023/10/28 02:43:58;;;;;;;30.88;29.27;;;;;;;;;;5058820;28;20024;-67
2023/10/28 02:46:25;;;;;;;24.13;22.80;;;;;;;;;;5058666;28;20036;-67
2023/10/28 02:48:53;;;;;;;25.95;24.58;;;;;;;;;;5056783;28;20158;-68
2023/10/28 02:51:19;;;;;;;27.50;25.88;;;;;;;;;;5061816;28;20097;-67
2023/10/28 02:53:44;;;;;;;26.17;24.80;;;;;;;;;;5057375;28;21243;-67
2023/10/28 02:56:10;;;;;;;30.73;28.92;;;;;;;;;;5059903;28;20037;-66
2023/10/28 02:58:35;;;;;;;21.02;19.92;;;;;;;;;;5059700;28;20814;-67
2023/10/28 03:01:08;;;;;;;20.70;19.60;;;;;;;;;;5054674;28;20037;-67
2023/10/28 03:03:33;;;;;;;19.40;18.33;;;;;;;;;;5056685;28;20029;-67
2023/10/28 03:05:59;;;;;;;20.02;18.92;;;;;;;;;;5057888;28;20124;-67
2023/10/28 03:08:24;;;;;;;23.02;21.58;;;;;;;;;;5056943;28;20062;-67
2023/10/28 03:10:49;;;;;;;21.30;20.17;;;;;;;;;;5058295;28;20037;-67
2023/10/28 03:13:15;;;;;;;21.75;20.55;;;;;;;;;;5054140;28;20137;-68
2023/10/28 03:15:40;;;;;;;27.13;25.73;;;;;;;;;;5061438;28;20070;-67
2023/10/28 03:18:05;;;;;;;28.75;27.25;;;;;;;;;;5060721;28;20067;-67
2023/10/28 03:20:31;;;;;;;23.30;22.05;;;;;;;;;;5058498;28;20063;-68
2023/10/28 03:22:56;;;;;;;25.58;24.23;;;;;;;;;;5058641;28;20036;-67
2023/10/28 03:25:22;;;;;;;25.73;24.33;;;;;;;;;;5055828;28;20461;-67
2023/10/28 03:27:47;;;;;;;25.17;23.88;;;;;;;;;;5059840;28;20560;-67
2023/10/28 03:30:13;;;;;;;29.27;26.73;;;;;;;;;;5058670;28;20057;-68
2023/10/28 03:32:39;;;;;;;31.50;29.85;;;;;;;;;;5056465;28;20029;-67
2023/10/28 03:35:05;;;;;;;27.88;26.42;;;;;;;;;;5063221;28;20454;-67
2023/10/28 03:37:31;;;;;;;32.85;31.15;;;;;;;;;;5063115;28;20071;-67
2023/10/28 03:39:57;;;;;;;39.25;37.25;;;;;;;;;;5068898;28;20052;-67
2023/10/28 03:42:22;;;;;;;45.97;43.67;;;;;;;;;;5064220;28;20505;-67
2023/10/28 03:44:47;;;;;;;43.22;41.05;;;;;;;;;;5057996;28;20035;-66
2023/10/28 03:47:13;;;;;;;40.88;38.78;;;;;;;;;;5062276;28;20090;-67
2023/10/28 03:49:38;;;;;;;46.08;43.67;;;;;;;;;;5061367;28;20043;-67
2023/10/28 03:52:04;;;;;;;48.50;46.05;;;;;;;;;;5062043;28;20478;-66
2023/10/28 03:54:29;;;;;;;43.38;41.17;;;;;;;;;;5059011;28;20107;-66
2023/10/28 03:56:55;;;;;;;46.88;44.47;;;;;;;;;;5059015;28;20480;-67
2023/10/28 03:59:21;;;;;;;45.97;43.67;;;;;;;;;;5061108;28;20033;-66
2023/10/28 04:01:46;;;;;;;38.05;35.95;;;;;;;;;;5057859;28;20028;-67
2023/10/28 04:04:12;;;;;;;56.03;53.22;;;;;;;;;;5063181;28;20098;-67
2023/10/28 04:06:37;;;;;;;49.65;47.10;;;;;;;;;;5059168;28;20658;-67
2023/10/28 04:09:03;;;;;;;50.00;47.50;;;;;;;;;;5061585;28;20051;-66
2023/10/28 04:11:29;;;;;;;52.05;49.38;;;;;;;;;;5061570;28;20427;-66
2023/10/28 04:13:54;;;;;;;52.50;49.83;;;;;;;;;;5069135;28;20047;-66
2023/10/28 04:16:19;;;;;;;49.38;46.88;;;;;;;;;;5058414;28;20036;-66
2023/10/28 04:18:45;;;;;;;50.80;48.22;;;;;;;;;;5062563;28;20123;-67
2023/10/28 04:21:10;;;;;;;51.30;48.70;;;;;;;;;;5059862;28;20186;-65
2023/10/28 04:23:35;;;;;;;47.95;45.55;;;;;;;;;;5056750;28;20044;-65
2023/10/28 04:26:02;;;;;;;45.03;42.72;;;;;;;;;;5062653;28;20523;-65
2023/10/28 04:28:28;;;;;;;50.40;47.90;;;;;;;;;;5061760;28;20045;-65
2023/10/28 04:30:59;;;;;;;50.25;47.72;;;;;;;;;;5061755;28;20078;-65
2023/10/28 04:33:25;;;;;;;44.67;42.38;;;;;;;;;;5061828;28;20439;-65
2023/10/28 04:35:54;;;;;;;46.20;43.80;;;;;;;;;;5063726;28;20086;-66
2023/10/28 04:38:20;;;;;;;38.78;36.53;;;;;;;;;;5058701;28;20128;-65
2023/10/28 04:40:46;;;;;;;40.42;38.33;;;;;;;;;;5056990;28;20335;-65
2023/10/28 04:43:12;;;;;;;46.92;44.25;;;;;;;;;;5061692;28;20139;-67
2023/10/28 04:45:41;;;;;;;45.08;42.78;;;;;;;;;;5062296;28;20483;-65
2023/10/28 04:48:09;;;;;;;41.35;39.25;;;;;;;;;;5066529;28;20049;-64
2023/10/28 04:50:34;;;;;;;38.45;36.45;;;;;;;;;;5060884;28;20028;-64
2023/10/28 04:53:01;;;;;;;37.25;35.35;;;;;;;;;;5060986;28;20170;-64
2023/10/28 04:55:26;;;;;;;36.75;34.85;;;;;;;;;;5061284;28;20495;-66
2023/10/28 04:57:51;;;;;;;36.15;34.25;;;;;;;;;;5061656;28;20075;-66
2023/10/28 05:00:18;;;;;;;34.13;32.33;;;;;;;;;;5063176;28;20111;-66
2023/10/28 05:02:44;;;;;;;35.78;33.95;;;;;;;;;;5061680;28;20084;-64
2023/10/28 05:05:10;;;;;;;28.75;27.25;;;;;;;;;;5061066;28;20133;-65
2023/10/28 05:07:35;;;;;;;35.33;33.42;;;;;;;;;;5061430;28;20040;-65
2023/10/28 05:10:01;;;;;;;32.92;31.23;;;;;;;;;;5063907;28;20529;-65
2023/10/28 05:12:26;;;;;;;31.33;29.73;;;;;;;;;;5059111;28;20033;-65
2023/10/28 05:14:51;;;;;;;28.88;27.35;;;;;;;;;;5061263;28;20036;-65
2023/10/28 05:17:17;;;;;;;26.58;25.17;;;;;;;;;;5060932;28;20500;-64
2023/10/28 05:19:42;;;;;;;25.38;23.92;;;;;;;;;;5063033;28;20068;-65
2023/10/28 05:22:08;;;;;;;27.25;25.75;;;;;;;;;;5060466;28;20068;-65
2023/10/28 05:24:33;;;;;;;25.13;23.83;;;;;;;;;;5063223;28;20035;-65
2023/10/28 05:26:58;;;;;;;26.83;25.42;;;;;;;;;;5060864;28;20415;-65
2023/10/28 05:29:24;;;;;;;26.27;24.88;;;;;;;;;;5063037;28;20170;-65
2023/10/28 05:31:50;;;;;;;25.95;24.58;;;;;;;;;;5060388;28;20607;-65
2023/10/28 05:34:16;;;;;;;26.52;25.02;;;;;;;;;;5064117;28;20233;-65
2023/10/28 05:36:41;;;;;;;24.75;23.45;;;;;;;;;;5063289;28;20100;-65
2023/10/28 05:39:07;;;;;;;26.77;24.83;;;;;;;;;;5062037;28;20036;-65
2023/10/28 05:41:33;;;;;;;27.73;26.23;;;;;;;;;;5060968;28;20028;-65
2023/10/28 05:43:58;;;;;;;25.50;24.20;;;;;;;;;;5060693;28;20040;-65
2023/10/28 05:46:23;;;;;;;26.77;25.38;;;;;;;;;;5065579;28;20040;-65
2023/10/28 05:48:52;;;;;;;27.33;25.92;;;;;;;;;;5064188;28;20040;-65
2023/10/28 05:51:17;;;;;;;24.65;23.35;;;;;;;;;;5062062;28;20111;-65
2023/10/28 05:53:43;;;;;;;26.92;25.52;;;;;;;;;;5061961;28;20501;-66
2023/10/28 05:56:08;;;;;;;25.60;24.23;;;;;;;;;;5062804;28;20155;-65
2023/10/28 05:58:34;;;;;;;25.23;23.92;;;;;;;;;;5065237;28;20496;-65
2023/10/28 06:00:59;;;;;;;26.88;25.38;;;;;;;;;;5061440;28;20028;-65
2023/10/28 06:03:26;;;;;;;27.15;25.75;;;;;;;;;;5060312;28;20029;-66
2023/10/28 06:05:52;;;;;;;24.58;23.27;;;;;;;;;;5058473;28;20037;-65
2023/10/28 06:08:18;;;;;;;25.98;24.48;;;;;;;;;;5060498;28;20108;-64
2023/10/28 06:10:45;;;;;;;27.05;25.63;;;;;;;;;;5060681;28;20131;-65
2023/10/28 06:13:11;;;;;;;25.95;24.55;;;;;;;;;;5060705;28;20172;-65
2023/10/28 06:15:37;;;;;;;25.88;24.48;;;;;;;;;;5060519;28;20052;-65
2023/10/28 06:18:03;;;;;;;22.98;21.67;;;;;;;;;;5061943;28;20086;-65
2023/10/28 06:20:30;;;;;;;23.48;22.20;;;;;;;;;;5060236;28;20029;-66
2023/10/28 06:22:56;;;;;;;24.33;22.92;;;;;;;;;;5059687;28;20037;-66
2023/10/28 06:25:21;;;;;;;23.55;22.25;;;;;;;;;;5062594;28;20024;-67
2023/10/28 06:27:47;;;;;;;24.75;23.38;;;;;;;;;;5059621;28;20713;-66
2023/10/28 06:30:14;;;;;;;22.85;21.65;;;;;;;;;;5061617;28;20052;-66
2023/10/28 06:32:40;;;;;;;23.25;22.05;;;;;;;;;;5059004;28;20033;-66
2023/10/28 06:35:06;;;;;;;24.85;23.55;;;;;;;;;;5060552;28;20033;-64
2023/10/28 06:37:31;;;;;;;23.23;21.73;;;;;;;;;;5061019;28;20028;-65
2023/10/28 06:39:58;;;;;;;21.40;20.20;;;;;;;;;;5061025;28;20043;-64
2023/10/28 06:42:24;;;;;;;24.77;23.45;;;;;;;;;;5058803;28;20060;-65
2023/10/28 06:44:49;;;;;;;21.77;20.60;;;;;;;;;;5060989;28;20477;-65
2023/10/28 06:47:16;;;;;;;22.25;21.05;;;;;;;;;;5061235;28;20048;-66
2023/10/28 06:49:42;;;;;;;22.33;21.13;;;;;;;;;;5062151;28;20028;-64
2023/10/28 06:52:07;;;;;;;23.10;21.83;;;;;;;;;;5061372;28;20031;-64
2023/10/28 06:54:33;;;;;;;21.55;20.35;;;;;;;;;;5062714;28;20036;-64
2023/10/28 06:56:58;;;;;;;23.17;21.77;;;;;;;;;;5062269;28;20036;-64
2023/10/28 06:59:25;;;;;;;25.42;21.58;;;;;;;;;;5060526;28;20035;-64
2023/10/28 07:01:52;;;;;;;23.00;21.80;;;;;;;;;;5062811;28;20046;-64
2023/10/28 07:04:17;;;;;;;21.73;20.52;;;;;;;;;;5063934;28;20143;-64
2023/10/28 07:06:43;;;;;;;23.27;22.00;;;;;;;;;;5060220;28;20482;-64
2023/10/28 07:09:09;;;;;;;23.33;22.02;;;;;;;;;;5058330;28;20553;-65
2023/10/28 07:11:34;;;;;;;21.23;20.13;;;;;;;;;;5058383;28;20040;-63
2023/10/28 07:13:59;;;;;;;22.00;20.80;;;;;;;;;;5059400;28;20392;-63
2023/10/28 07:16:27;;;;;;;23.25;22.00;;;;;;;;;;5062227;28;20055;-63
2023/10/28 07:18:52;;;;;;;22.77;21.50;;;;;;;;;;5059640;28;20412;-63
2023/10/28 07:21:17;;;;;;;23.30;22.08;;;;;;;;;;5060401;28;20498;-64
2023/10/28 07:23:43;;;;;;;24.73;22.33;;;;;;;;;;5058478;28;20037;-64
2023/10/28 07:26:08;;;;;;;23.75;22.45;;;;;;;;;;5059958;28;20032;-63
2023/10/28 07:28:35;;;;;;;26.23;24.50;;;;;;;;;;5060201;28;20025;-65
2023/10/28 07:31:01;;;;;;;23.58;22.27;;;;;;;;;;5058452;28;20032;-65
2023/10/28 07:33:27;;;;;;;21.85;20.67;;;;;;;;;;5057437;28;20028;-65
2023/10/28 07:35:53;;;;;;;22.77;21.58;;;;;;;;;;5057579;28;20040;-64
2023/10/28 07:38:20;;;;;;;24.25;22.42;;;;;;;;;;5056230;28;20042;-64
2023/10/28 07:40:47;;;;;;;23.38;22.08;;;;;;;;;;5059214;28;20474;-65
2023/10/28 07:43:14;;;;;;;22.02;20.83;;;;;;;;;;5058423;28;20109;-65
2023/10/28 07:45:40;;;;;;;24.13;22.83;;;;;;;;;;5056900;28;20037;-64
2023/10/28 07:48:07;;;;;;;23.00;21.80;;;;;;;;;;5058283;28;20044;-65
2023/10/28 07:50:39;;;;;;;22.23;21.02;;;;;;;;;;5057942;28;20029;-63
2023/10/28 07:53:05;;;;;;;21.88;20.67;;;;;;;;;;5060074;28;20032;-64
2023/10/28 07:55:31;;;;;;;23.58;22.33;;;;;;;;;;5058232;28;20036;-65
2023/10/28 07:57:57;;;;;;;21.85;20.65;;;;;;;;;;5059392;28;20528;-65
2023/10/28 08:00:23;;;;;;;24.42;22.50;;;;;;;;;;5057202;28;20554;-65
2023/10/28 08:02:49;;;;;;;24.48;21.75;;;;;;;;;;5058017;28;20118;-63
2023/10/28 08:05:15;;;;;;;22.48;21.27;;;;;;;;;;5057151;28;20041;-63
2023/10/28 08:07:41;;;;;;;21.63;20.42;;;;;;;;;;5055880;28;20029;-64
2023/10/28 08:10:08;;;;;;;23.05;21.75;;;;;;;;;;5059399;28;20044;-66
2023/10/28 08:12:34;;;;;;;21.65;20.45;;;;;;;;;;5058711;28;20016;-65
2023/10/28 08:15:00;;;;;;;25.10;22.85;;;;;;;;;;5059033;28;20115;-63
2023/10/28 08:17:26;;;;;;;26.63;25.00;;;;;;;;;;5056891;28;20770;-63
2023/10/28 08:19:51;;;;;;;24.27;22.98;;;;;;;;;;5061690;28;20119;-64
2023/10/28 08:22:17;;;;;;;23.70;22.40;;;;;;;;;;5056939;28;20036;-64
2023/10/28 08:24:42;;;;;;;24.35;23.05;;;;;;;;;;5070103;28;20051;-66
2023/10/28 08:27:08;;;;;;;24.05;22.75;;;;;;;;;;5062988;28;20960;-65
2023/10/28 08:29:34;;;;;;;23.98;22.67;;;;;;;;;;5063345;28;20362;-63
2023/10/28 08:32:00;;;;;;;24.60;23.30;;;;;;;;;;5066812;28;20463;-64
2023/10/28 08:34:26;;;;;;;25.38;24.08;;;;;;;;;;5062307;28;20032;-63
2023/10/28 08:36:54;;;;;;;27.27;25.88;;;;;;;;;;5062999;28;20040;-65
2023/10/28 08:39:19;;;;;;;24.65;23.30;;;;;;;;;;5060779;28;20028;-65
2023/10/28 08:41:46;;;;;;;24.85;23.45;;;;;;;;;;5064707;28;20374;-65
2023/10/28 08:44:14;;;;;;;24.02;22.73;;;;;;;;;;5061564;28;20356;-65
2023/10/28 08:46:41;;;;;;;25.05;23.73;;;;;;;;;;5064401;28;20567;-65
2023/10/28 08:49:08;;;;;;;25.27;23.95;;;;;;;;;;5067320;28;20040;-66
2023/10/28 08:51:36;;;;;;;26.50;24.90;;;;;;;;;;5064468;28;20158;-66
2023/10/28 08:54:04;;;;;;;26.15;24.33;;;;;;;;;;5063925;28;20043;-64
2023/10/28 08:56:32;;;;;;;25.60;24.20;;;;;;;;;;5062298;28;20530;-63
2023/10/28 08:58:58;;;;;;;26.02;24.63;;;;;;;;;;5062997;28;20130;-66
2023/10/28 09:01:24;;;;;;;25.52;24.20;;;;;;;;;;5060109;28;20088;-65
2023/10/28 09:03:56;;;;;;;25.08;23.58;;;;;;;;;;5061702;28;20047;-63
2023/10/28 09:06:22;;;;;;;25.77;24.25;;;;;;;;;;5065918;28;20397;-63
2023/10/28 09:08:49;;;;;;;26.52;24.85;;;;;;;;;;5060090;28;20041;-64
2023/10/28 09:11:15;;;;;;;25.95;24.55;;;;;;;;;;5068946;28;20032;-64
2023/10/28 09:13:46;;;;;;;25.73;24.33;;;;;;;;;;5061362;28;20028;-64
2023/10/28 09:16:14;;;;;;;30.58;28.88;;;;;;;;;;5062366;28;20037;-64
2023/10/28 09:18:40;;;;;;;28.70;27.10;;;;;;;;;;5060670;28;20069;-64
2023/10/28 09:21:09;;;;;;;28.52;27.02;;;;;;;;;;5064878;28;20083;-64
2023/10/28 09:23:35;;;;;;;26.70;25.30;;;;;;;;;;5060042;28;20040;-65
2023/10/28 09:26:01;;;;;;;25.75;24.40;;;;;;;;;;5061772;28;20157;-65
2023/10/28 09:28:26;;;;;;;24.95;23.60;;;;;;;;;;5067853;28;20063;-64
2023/10/28 09:30:51;;;;;;;25.73;24.15;;;;;;;;;;5057437;28;20062;-63
2023/10/28 09:33:18;;;;;;;26.90;25.50;;;;;;;;;;5064913;28;20029;-65
2023/10/28 09:35:45;;;;;;;27.60;25.98;;;;;;;;;;5062541;28;20052;-64
2023/10/28 09:38:11;;;;;;;28.50;27.00;;;;;;;;;;5060585;28;20101;-65
2023/10/28 09:40:37;;;;;;;26.80;25.30;;;;;;;;;;5064859;28;20172;-64
2023/10/28 09:43:04;;;;;;;30.15;28.58;;;;;;;;;;5061955;28;20040;-62
2023/10/28 09:45:30;;;;;;;32.03;30.27;;;;;;;;;;5060388;28;20060;-65
2023/10/28 09:48:05;;;;;;;33.03;30.70;;;;;;;;;;5063211;28;20498;-64
2023/10/28 09:50:38;;;;;;;36.78;34.88;;;;;;;;;;5065561;28;20105;-65
2023/10/28 09:53:03;;;;;;;45.47;43.17;;;;;;;;;;5062935;28;20074;-66
2023/10/28 09:55:37;;;;;;;57.30;54.42;;;;;;;;;;5059077;28;20072;-66
2023/10/28 09:58:28;;;;;;;57.10;54.15;;;;;;;;;;5058113;28;20584;-63
2023/10/28 10:01:03;;;;;;;55.08;52.22;;;;;;;;;;5059444;28;20362;-63
2023/10/28 10:04:06;;;;;;;56.58;53.72;;;;;;;;;;5058539;28;20120;-63
2023/10/28 10:06:34;;;;;;;51.67;49.05;;;;;;;;;;5059243;28;20048;-63
2023/10/28 10:09:00;;;;;;;55.22;52.45;;;;;;;;;;5057189;28;20070;-64
2023/10/28 10:11:26;;;;;;;55.33;52.22;;;;;;;;;;5061583;28;20044;-64
2023/10/28 10:13:52;;;;;;;49.67;47.15;;;;;;;;;;5063013;28;20024;-64
2023/10/28 10:16:28;;;;;;;50.13;47.58;;;;;;;;;;5061609;28;20039;-63
2023/10/28 10:18:55;;;;;;;49.40;46.92;;;;;;;;;;5057163;28;20507;-63
2023/10/28 10:21:22;;;;;;;54.97;51.10;;;;;;;;;;5059169;28;20060;-63
2023/10/28 10:23:52;;;;;;;57.15;54.22;;;;;;;;;;5060280;28;20036;-64
2023/10/28 10:26:28;;;;;;;66.82;63.40;;;;;;;;;;5059895;28;20373;-63
2023/10/28 10:28:55;;;;;;;63.50;60.30;;;;;;;;;;5063260;28;20032;-64
2023/10/28 10:31:30;;;;;;;50.83;48.28;;;;;;;;;;5062232;28;20060;-63
2023/10/28 10:34:09;;;;;;;50.63;48.08;;;;;;;;;;5058558;28;20036;-65
2023/10/28 10:36:43;;;;;;;67.10;63.75;;;;;;;;;;5064754;28;20068;-65
2023/10/28 10:39:20;;;;;;;67.70;64.28;;;;;;;;;;5061305;28;20182;-66
2023/10/28 10:41:53;;;;;;;62.97;59.83;;;;;;;;;;5062383;28;20062;-63
2023/10/28 10:44:32;;;;;;;63.38;60.17;;;;;;;;;;5061654;28;20139;-63
2023/10/28 10:46:59;;;;;;;46.30;43.95;;;;;;;;;;5058141;28;20053;-63
2023/10/28 10:49:25;;;;;;;41.78;39.67;;;;;;;;;;5061166;28;20051;-64
2023/10/28 10:51:51;;;;;;;40.55;38.45;;;;;;;;;;5063463;28;20032;-66
2023/10/28 10:54:17;;;;;;;30.75;29.02;;;;;;;;;;5059121;28;20127;-65
2023/10/28 10:56:44;;;;;;;24.75;23.45;;;;;;;;;;5060942;28;20116;-66
2023/10/28 10:59:09;;;;;;;27.77;26.27;;;;;;;;;;5062647;28;20469;-63
2023/10/28 11:01:35;;;;;;;31.80;30.10;;;;;;;;;;5061561;28;20064;-63
2023/10/28 11:04:02;;;;;;;31.73;30.02;;;;;;;;;;5062704;28;20047;-64
2023/10/28 11:06:28;;;;;;;27.13;25.73;;;;;;;;;;5062291;28;20032;-64
2023/10/28 11:08:53;;;;;;;26.55;25.15;;;;;;;;;;5062221;28;20044;-64
2023/10/28 11:11:19;;;;;;;25.40;24.08;;;;;;;;;;5062113;28;20016;-65
2023/10/28 11:13:44;;;;;;;24.90;23.60;;;;;;;;;;5061972;28;20036;-65
2023/10/28 11:16:28;;;;;;;24.75;23.45;;;;;;;;;;5060662;28;20472;-65
2023/10/28 11:18:53;;;;;;;25.63;24.25;;;;;;;;;;5062898;28;20044;-67
2023/10/28 11:21:26;;;;;;;24.00;22.70;;;;;;;;;;5061969;28;20043;-65
2023/10/28 11:23:54;;;;;;;26.73;25.33;;;;;;;;;;5060452;28;20432;-66
2023/10/28 11:26:21;;;;;;;24.45;23.15;;;;;;;;;;5060012;28;20663;-66
2023/10/28 11:28:47;;;;;;;23.55;22.13;;;;;;;;;;5063581;28;20060;-65
2023/10/28 11:31:12;;;;;;;23.23;21.92;;;;;;;;;;5062075;28;20474;-64
2023/10/28 11:33:38;;;;;;;23.90;22.60;;;;;;;;;;5061360;28;20037;-65
2023/10/28 11:36:04;;;;;;;27.35;25.75;;;;;;;;;;5060682;28;20516;-64
2023/10/28 11:38:34;;;;;;;25.77;24.38;;;;;;;;;;5057590;28;20036;-65
2023/10/28 11:41:04;;;;;;;24.23;22.50;;;;;;;;;;5060458;28;20094;-64
2023/10/28 11:43:30;;;;;;;23.65;22.30;;;;;;;;;;5057479;28;20107;-65
2023/10/28 11:45:55;;;;;;;23.75;22.38;;;;;;;;;;5057203;28;20745;-64
2023/10/28 11:48:21;;;;;;;24.20;22.58;;;;;;;;;;5058209;28;20480;-64
2023/10/28 11:50:47;;;;;;;31.10;29.50;;;;;;;;;;5060936;28;20040;-65
2023/10/28 11:53:15;;;;;;;25.33;23.92;;;;;;;;;;5059704;28;20120;-65
2023/10/28 11:55:41;;;;;;;24.60;23.30;;;;;;;;;;5065434;28;20077;-63
2023/10/28 11:58:08;;;;;;;25.63;24.23;;;;;;;;;;5065956;28;20381;-64
2023/10/28 12:00:34;;;;;;;26.88;25.48;;;;;;;;;;5065602;28;20039;-64
2023/10/28 12:03:03;;;;;;;33.95;31.90;;;;;;;;;;5061185;28;20040;-66
2023/10/28 12:05:29;;;;;;;39.67;37.67;;;;;;;;;;5063060;28;20052;-62
2023/10/28 12:07:54;;;;;;;34.88;33.08;;;;;;;;;;5064199;28;20040;-64
2023/10/28 12:10:19;;;;;;;38.38;36.38;;;;;;;;;;5062349;28;20067;-65
2023/10/28 12:12:45;;;;;;;42.03;39.90;;;;;;;;;;5066196;28;20057;-64
2023/10/28 12:15:10;;;;;;;47.00;44.40;;;;;;;;;;5064400;28;20033;-65
2023/10/28 12:17:35;;;;;;;47.55;44.95;;;;;;;;;;5063023;28;20079;-66
2023/10/28 12:20:02;;;;;;;44.15;41.88;;;;;;;;;;5064132;28;20047;-64
2023/10/28 12:22:28;;;;;;;40.60;38.42;;;;;;;;;;5064202;28;20056;-65
2023/10/28 12:24:53;;;;;;;40.30;38.20;;;;;;;;;;5063746;28;20047;-63
2023/10/28 12:27:19;;;;;;;43.40;41.00;;;;;;;;;;5065980;28;20041;-65
2023/10/28 12:29:45;;;;;;;48.08;45.58;;;;;;;;;;5063986;28;20151;-64
2023/10/28 12:32:11;;;;;;;47.55;45.15;;;;;;;;;;5058992;28;20126;-63
2023/10/28 12:34:36;;;;;;;51.55;48.78;;;;;;;;;;5062152;28;20868;-64
2023/10/28 12:37:02;;;;;;;50.67;48.08;;;;;;;;;;5062678;28;20037;-65
2023/10/28 12:39:29;;;;;;;63.00;59.85;;;;;;;;;;5062160;28;20474;-65
2023/10/28 12:41:55;;;;;;;68.55;63.90;;;;;;;;;;5064679;28;20078;-65
2023/10/28 12:44:20;;;;;;;68.70;65.20;;;;;;;;;;5059621;28;20134;-65
2023/10/28 12:46:46;;;;;;;63.50;60.10;;;;;;;;;;5059708;28;20040;-65
2023/10/28 12:49:11;;;;;;;66.45;63.03;;;;;;;;;;5064086;28;20068;-66
2023/10/28 12:51:37;;;;;;;63.30;59.92;;;;;;;;;;5063769;28;20763;-63
2023/10/28 12:54:04;;;;;;;66.15;62.55;;;;;;;;;;5062004;28;20047;-65
2023/10/28 12:56:31;;;;;;;65.88;62.58;;;;;;;;;;5064935;28;20116;-63
2023/10/28 12:58:57;;;;;;;58.85;55.90;;;;;;;;;;5064854;28;20025;-64
2023/10/28 13:01:26;;;;;;;51.10;48.47;;;;;;;;;;5063797;28;20615;-64
2023/10/28 13:03:51;;;;;;;51.55;47.78;;;;;;;;;;5060019;28;20052;-65
2023/10/28 13:06:17;;;;;;;42.50;40.25;;;;;;;;;;5059947;28;20474;-65
2023/10/28 13:08:43;;;;;;;42.97;40.78;;;;;;;;;;5058012;28;20024;-65
2023/10/28 13:11:08;;;;;;;37.13;35.20;;;;;;;;;;5067334;28;20040;-64
2023/10/28 13:13:35;;;;;;;37.95;36.05;;;;;;;;;;5065824;28;20082;-66
2023/10/28 13:16:00;;;;;;;37.50;35.45;;;;;;;;;;5063928;28;20047;-67
2023/10/28 13:18:26;;;;;;;39.65;37.63;;;;;;;;;;5065298;28;20040;-66
2023/10/28 13:20:52;;;;;;;40.42;38.35;;;;;;;;;;5061833;28;20040;-67
2023/10/28 13:23:18;;;;;;;40.58;38.47;;;;;;;;;;5063473;28;20028;-66
2023/10/28 13:25:43;;;;;;;40.28;38.22;;;;;;;;;;5064626;28;20025;-65
2023/10/28 13:28:09;;;;;;;38.28;36.28;;;;;;;;;;5063778;28;20508;-67
2023/10/28 13:30:37;;;;;;;36.83;34.92;;;;;;;;;;5063541;28;20108;-67
2023/10/28 13:33:04;;;;;;;35.85;33.75;;;;;;;;;;5062316;28;20040;-67
2023/10/28 13:35:29;;;;;;;36.25;34.35;;;;;;;;;;5065356;28;20039;-68
2023/10/28 13:37:56;;;;;;;37.88;35.95;;;;;;;;;;5061769;28;20036;-67
2023/10/28 13:40:22;;;;;;;33.22;31.52;;;;;;;;;;5061216;28;20033;-65
2023/10/28 13:42:47;;;;;;;35.28;33.38;;;;;;;;;;5064059;28;20354;-66
2023/10/28 13:45:13;;;;;;;33.92;32.13;;;;;;;;;;5063524;28;20067;-65
2023/10/28 13:47:42;;;;;;;33.63;31.92;;;;;;;;;;5059807;28;20043;-66
2023/10/28 13:50:07;;;;;;;33.08;31.15;;;;;;;;;;5063494;28;20059;-67
2023/10/28 13:52:35;;;;;;;32.78;30.88;;;;;;;;;;5058935;28;20032;-65
2023/10/28 13:55:00;;;;;;;31.30;29.70;;;;;;;;;;5063471;28;20117;-65
2023/10/28 13:57:26;;;;;;;31.98;30.30;;;;;;;;;;5062129;28;20347;-65
2023/10/28 13:59:54;;;;;;;30.45;28.85;;;;;;;;;;5065452;28;20033;-65
2023/10/28 14:02:20;;;;;;;30.08;28.45;;;;;;;;;;5063645;28;20470;-66
2023/10/28 14:04:46;;;;;;;28.95;27.45;;;;;;;;;;5068152;28;20044;-64
2023/10/28 14:07:11;;;;;;;30.38;28.75;;;;;;;;;;5063464;28;20033;-66
2023/10/28 14:09:36;;;;;;;28.77;27.27;;;;;;;;;;5061136;28;20423;-64
2023/10/28 14:12:02;;;;;;;33.90;32.10;;;;;;;;;;5065823;28;20039;-65